sensor_id;sensor_type;location;lat;lon;timestamp;P1;durP1;ratioP1;P2;durP2;ratioP2
54575;SDS011;40472;53.486;14.542;2023-01-28T00:02:21;2.38;;;0.63;;
54575;SDS011;40472;53.486;14.542;2023-01-28T00:04:49;2.22;;;0.90;;
54575;SDS011;40472;53.486;14.542;2023-01-28T00:07:16;5.20;;;1.00;;
54575;SDS011;40472;53.486;14.542;2023-01-28T00:09:43;1.98;;;1.00;;
54575;SDS011;40472;53.486;14.542;2023-01-28T00:12:09;2.63;;;1.08;;
54575;SDS011;40472;53.486;14.542;2023-01-28T00:14:34;3.10;;;1.05;;
54575;SDS011;40472;53.486;14.542;2023-01-28T00:17:00;3.45;;;1.00;;
54575;SDS011;40472;53.486;14.542;2023-01-28T00:19:28;2.08;;;1.23;;
54575;SDS011;40472;53.486;14.542;2023-01-28T00:21:54;2.90;;;1.02;;
54575;SDS011;40472;53.486;14.542;2023-01-28T00:24:20;1.90;;;1.23;;
54575;SDS011;40472;53.486;14.542;2023-01-28T00:26:46;2.85;;;1.23;;
54575;SDS011;40472;53.486;14.542;2023-01-28T00:29:12;0.70;;;0.68;;
54575;SDS011;40472;53.486;14.542;2023-01-28T00:31:38;1.88;;;1.05;;
54575;SDS011;40472;53.486;14.542;2023-01-28T00:34:05;3.45;;;1.52;;
54575;SDS011;40472;53.486;14.542;2023-01-28T00:36:31;1.80;;;1.00;;
54575;SDS011;40472;53.486;14.542;2023-01-28T00:38:58;3.17;;;1.00;;
54575;SDS011;40472;53.486;14.542;2023-01-28T00:41:26;2.53;;;1.00;;
54575;SDS011;40472;53.486;14.542;2023-01-28T00:43:52;3.83;;;1.17;;
54575;SDS011;40472;53.486;14.542;2023-01-28T00:46:18;4.43;;;1.17;;
54575;SDS011;40472;53.486;14.542;2023-01-28T00:48:45;2.00;;;0.88;;
54575;SDS011;40472;53.486;14.542;2023-01-28T00:51:12;3.05;;;1.13;;
54575;SDS011;40472;53.486;14.542;2023-01-28T00:53:41;3.55;;;1.40;;
54575;SDS011;40472;53.486;14.542;2023-01-28T00:56:07;2.33;;;1.15;;
54575;SDS011;40472;53.486;14.542;2023-01-28T00:58:36;3.10;;;1.35;;
54575;SDS011;40472;53.486;14.542;2023-01-28T01:01:06;4.90;;;1.10;;
54575;SDS011;40472;53.486;14.542;2023-01-28T01:03:35;2.35;;;1.10;;
54575;SDS011;40472;53.486;14.542;2023-01-28T01:06:02;4.38;;;0.98;;
54575;SDS011;40472;53.486;14.542;2023-01-28T01:08:28;4.82;;;1.45;;
54575;SDS011;40472;53.486;14.542;2023-01-28T01:11:03;6.68;;;1.67;;
54575;SDS011;40472;53.486;14.542;2023-01-28T01:13:29;4.30;;;1.25;;
54575;SDS011;40472;53.486;14.542;2023-01-28T01:16:04;5.88;;;1.23;;
54575;SDS011;40472;53.486;14.542;2023-01-28T01:18:32;2.50;;;1.63;;
54575;SDS011;40472;53.486;14.542;2023-01-28T01:20:59;3.03;;;1.42;;
54575;SDS011;40472;53.486;14.542;2023-01-28T01:23:26;5.15;;;1.92;;
54575;SDS011;40472;53.486;14.542;2023-01-28T01:25:52;4.90;;;1.65;;
54575;SDS011;40472;53.486;14.542;2023-01-28T01:28:19;2.95;;;1.60;;
54575;SDS011;40472;53.486;14.542;2023-01-28T01:30:46;5.28;;;1.38;;
54575;SDS011;40472;53.486;14.542;2023-01-28T01:33:13;5.22;;;1.30;;
54575;SDS011;40472;53.486;14.542;2023-01-28T01:35:38;2.72;;;1.50;;
54575;SDS011;40472;53.486;14.542;2023-01-28T01:38:05;4.03;;;1.40;;
54575;SDS011;40472;53.486;14.542;2023-01-28T01:40:31;6.65;;;1.02;;
54575;SDS011;40472;53.486;14.542;2023-01-28T01:42:56;4.88;;;1.33;;
54575;SDS011;40472;53.486;14.542;2023-01-28T01:45:22;4.32;;;1.40;;
54575;SDS011;40472;53.486;14.542;2023-01-28T01:51:03;3.67;;;1.13;;
54575;SDS011;40472;53.486;14.542;2023-01-28T01:53:33;5.53;;;1.27;;
54575;SDS011;40472;53.486;14.542;2023-01-28T01:56:03;2.40;;;1.10;;
54575;SDS011;40472;53.486;14.542;2023-01-28T01:58:38;4.15;;;1.45;;
54575;SDS011;40472;53.486;14.542;2023-01-28T02:01:06;6.43;;;1.33;;
54575;SDS011;40472;53.486;14.542;2023-01-28T02:03:52;4.13;;;1.20;;
54575;SDS011;40472;53.486;14.542;2023-01-28T02:06:24;3.95;;;1.30;;
54575;SDS011;40472;53.486;14.542;2023-01-28T02:09:36;5.03;;;1.52;;
54575;SDS011;40472;53.486;14.542;2023-01-28T02:12:43;1.17;;;0.93;;
54575;SDS011;40472;53.486;14.542;2023-01-28T02:15:22;2.33;;;0.98;;
54575;SDS011;40472;53.486;14.542;2023-01-28T02:17:49;2.42;;;1.30;;
54575;SDS011;40472;53.486;14.542;2023-01-28T02:20:28;2.58;;;0.88;;
54575;SDS011;40472;53.486;14.542;2023-01-28T02:26:25;1.35;;;0.70;;
54575;SDS011;40472;53.486;14.542;2023-01-28T02:29:14;3.30;;;0.50;;
54575;SDS011;40472;53.486;14.542;2023-01-28T02:34:34;0.95;;;0.60;;
54575;SDS011;40472;53.486;14.542;2023-01-28T02:39:47;4.72;;;0.93;;
54575;SDS011;40472;53.486;14.542;2023-01-28T02:42:17;2.15;;;0.80;;
54575;SDS011;40472;53.486;14.542;2023-01-28T02:44:47;6.25;;;1.30;;
54575;SDS011;40472;53.486;14.542;2023-01-28T02:47:14;1.33;;;0.60;;
54575;SDS011;40472;53.486;14.542;2023-01-28T02:50:00;5.63;;;1.10;;
54575;SDS011;40472;53.486;14.542;2023-01-28T02:55:38;2.25;;;0.77;;
54575;SDS011;40472;53.486;14.542;2023-01-28T03:06:17;1.25;;;0.90;;
54575;SDS011;40472;53.486;14.542;2023-01-28T03:11:36;4.15;;;0.70;;
54575;SDS011;40472;53.486;14.542;2023-01-28T03:14:23;3.15;;;0.95;;
54575;SDS011;40472;53.486;14.542;2023-01-28T03:17:11;8.00;;;1.13;;
54575;SDS011;40472;53.486;14.542;2023-01-28T03:20:10;0.55;;;0.50;;
54575;SDS011;40472;53.486;14.542;2023-01-28T03:22:56;1.48;;;0.70;;
54575;SDS011;40472;53.486;14.542;2023-01-28T03:25:45;2.22;;;0.68;;
54575;SDS011;40472;53.486;14.542;2023-01-28T03:28:34;1.50;;;0.50;;
54575;SDS011;40472;53.486;14.542;2023-01-28T03:31:20;3.30;;;0.50;;
54575;SDS011;40472;53.486;14.542;2023-01-28T03:34:06;1.63;;;0.82;;
54575;SDS011;40472;53.486;14.542;2023-01-28T03:39:23;0.52;;;0.50;;
54575;SDS011;40472;53.486;14.542;2023-01-28T03:44:25;1.27;;;0.68;;
54575;SDS011;40472;53.486;14.542;2023-01-28T03:47:10;6.03;;;0.88;;
54575;SDS011;40472;53.486;14.542;2023-01-28T03:49:40;5.53;;;0.68;;
54575;SDS011;40472;53.486;14.542;2023-01-28T03:52:08;2.35;;;0.50;;
54575;SDS011;40472;53.486;14.542;2023-01-28T03:54:34;0.68;;;0.40;;
54575;SDS011;40472;53.486;14.542;2023-01-28T03:57:00;3.10;;;0.57;;
54575;SDS011;40472;53.486;14.542;2023-01-28T03:59:25;1.75;;;0.63;;
54575;SDS011;40472;53.486;14.542;2023-01-28T04:01:51;0.70;;;0.50;;
54575;SDS011;40472;53.486;14.542;2023-01-28T04:04:17;2.72;;;0.73;;
54575;SDS011;40472;53.486;14.542;2023-01-28T04:06:49;1.95;;;0.60;;
54575;SDS011;40472;53.486;14.542;2023-01-28T04:09:16;1.08;;;0.60;;
54575;SDS011;40472;53.486;14.542;2023-01-28T04:11:41;1.17;;;0.80;;
54575;SDS011;40472;53.486;14.542;2023-01-28T04:14:07;2.58;;;0.90;;
54575;SDS011;40472;53.486;14.542;2023-01-28T04:16:33;1.80;;;0.80;;
54575;SDS011;40472;53.486;14.542;2023-01-28T04:18:59;2.17;;;1.00;;
54575;SDS011;40472;53.486;14.542;2023-01-28T04:21:24;3.70;;;0.90;;
54575;SDS011;40472;53.486;14.542;2023-01-28T04:23:50;3.40;;;1.00;;
54575;SDS011;40472;53.486;14.542;2023-01-28T04:26:16;1.58;;;0.70;;
54575;SDS011;40472;53.486;14.542;2023-01-28T04:28:42;2.67;;;1.40;;
54575;SDS011;40472;53.486;14.542;2023-01-28T04:31:07;2.35;;;1.27;;
54575;SDS011;40472;53.486;14.542;2023-01-28T04:33:33;1.55;;;1.17;;
54575;SDS011;40472;53.486;14.542;2023-01-28T04:35:59;6.28;;;1.73;;
54575;SDS011;40472;53.486;14.542;2023-01-28T04:38:25;8.70;;;2.03;;
54575;SDS011;40472;53.486;14.542;2023-01-28T04:40:51;2.30;;;1.25;;
54575;SDS011;40472;53.486;14.542;2023-01-28T04:43:18;9.85;;;1.42;;
54575;SDS011;40472;53.486;14.542;2023-01-28T04:45:45;2.88;;;1.00;;
54575;SDS011;40472;53.486;14.542;2023-01-28T04:48:11;3.80;;;1.40;;
54575;SDS011;40472;53.486;14.542;2023-01-28T04:50:38;5.28;;;1.90;;
54575;SDS011;40472;53.486;14.542;2023-01-28T04:53:03;7.75;;;1.83;;
54575;SDS011;40472;53.486;14.542;2023-01-28T04:55:29;5.30;;;1.80;;
54575;SDS011;40472;53.486;14.542;2023-01-28T04:57:55;9.20;;;1.63;;
54575;SDS011;40472;53.486;14.542;2023-01-28T05:00:20;2.13;;;1.05;;
54575;SDS011;40472;53.486;14.542;2023-01-28T05:02:46;10.02;;;1.77;;
54575;SDS011;40472;53.486;14.542;2023-01-28T05:05:12;4.07;;;1.10;;
54575;SDS011;40472;53.486;14.542;2023-01-28T05:07:37;5.32;;;1.48;;
54575;SDS011;40472;53.486;14.542;2023-01-28T05:10:03;2.75;;;1.35;;
54575;SDS011;40472;53.486;14.542;2023-01-28T05:12:29;4.65;;;1.27;;
54575;SDS011;40472;53.486;14.542;2023-01-28T05:14:57;3.42;;;1.60;;
54575;SDS011;40472;53.486;14.542;2023-01-28T05:17:25;3.60;;;1.25;;
54575;SDS011;40472;53.486;14.542;2023-01-28T05:19:51;1.55;;;0.82;;
54575;SDS011;40472;53.486;14.542;2023-01-28T05:22:17;2.60;;;0.98;;
54575;SDS011;40472;53.486;14.542;2023-01-28T05:24:42;5.88;;;1.20;;
54575;SDS011;40472;53.486;14.542;2023-01-28T05:27:08;2.03;;;1.05;;
54575;SDS011;40472;53.486;14.542;2023-01-28T05:29:34;2.17;;;0.63;;
54575;SDS011;40472;53.486;14.542;2023-01-28T05:31:59;5.85;;;1.00;;
54575;SDS011;40472;53.486;14.542;2023-01-28T05:34:25;5.88;;;1.67;;
54575;SDS011;40472;53.486;14.542;2023-01-28T05:36:51;5.82;;;1.40;;
54575;SDS011;40472;53.486;14.542;2023-01-28T05:39:17;2.95;;;1.15;;
54575;SDS011;40472;53.486;14.542;2023-01-28T05:41:42;2.95;;;1.20;;
54575;SDS011;40472;53.486;14.542;2023-01-28T05:44:08;2.60;;;0.95;;
54575;SDS011;40472;53.486;14.542;2023-01-28T05:46:34;3.20;;;1.30;;
54575;SDS011;40472;53.486;14.542;2023-01-28T05:48:59;1.23;;;0.70;;
54575;SDS011;40472;53.486;14.542;2023-01-28T05:51:25;3.13;;;1.20;;
54575;SDS011;40472;53.486;14.542;2023-01-28T05:53:51;1.38;;;0.70;;
54575;SDS011;40472;53.486;14.542;2023-01-28T05:56:16;2.05;;;0.80;;
54575;SDS011;40472;53.486;14.542;2023-01-28T05:58:44;1.45;;;1.05;;
54575;SDS011;40472;53.486;14.542;2023-01-28T06:01:09;3.70;;;1.08;;
54575;SDS011;40472;53.486;14.542;2023-01-28T06:03:35;1.27;;;0.75;;
54575;SDS011;40472;53.486;14.542;2023-01-28T06:06:01;1.67;;;1.08;;
54575;SDS011;40472;53.486;14.542;2023-01-28T06:08:26;1.55;;;0.88;;
54575;SDS011;40472;53.486;14.542;2023-01-28T06:10:52;5.43;;;0.95;;
54575;SDS011;40472;53.486;14.542;2023-01-28T06:13:18;3.00;;;0.95;;
54575;SDS011;40472;53.486;14.542;2023-01-28T06:15:43;5.57;;;1.13;;
54575;SDS011;40472;53.486;14.542;2023-01-28T06:18:09;3.95;;;1.55;;
54575;SDS011;40472;53.486;14.542;2023-01-28T06:20:35;5.05;;;1.30;;
54575;SDS011;40472;53.486;14.542;2023-01-28T06:23:00;3.92;;;1.13;;
54575;SDS011;40472;53.486;14.542;2023-01-28T06:25:26;7.80;;;1.85;;
54575;SDS011;40472;53.486;14.542;2023-01-28T06:27:52;4.10;;;1.30;;
54575;SDS011;40472;53.486;14.542;2023-01-28T06:30:18;3.40;;;1.42;;
54575;SDS011;40472;53.486;14.542;2023-01-28T06:32:44;4.82;;;1.63;;
54575;SDS011;40472;53.486;14.542;2023-01-28T06:35:12;4.43;;;1.63;;
54575;SDS011;40472;53.486;14.542;2023-01-28T06:37:37;6.82;;;1.10;;
54575;SDS011;40472;53.486;14.542;2023-01-28T06:40:03;6.60;;;1.48;;
54575;SDS011;40472;53.486;14.542;2023-01-28T06:42:30;3.53;;;1.45;;
54575;SDS011;40472;53.486;14.542;2023-01-28T06:44:55;3.15;;;1.60;;
54575;SDS011;40472;53.486;14.542;2023-01-28T06:47:21;3.13;;;1.38;;
54575;SDS011;40472;53.486;14.542;2023-01-28T06:49:47;3.60;;;1.35;;
54575;SDS011;40472;53.486;14.542;2023-01-28T06:52:12;3.88;;;1.30;;
54575;SDS011;40472;53.486;14.542;2023-01-28T06:54:38;3.65;;;1.30;;
54575;SDS011;40472;53.486;14.542;2023-01-28T06:57:04;3.97;;;1.20;;
54575;SDS011;40472;53.486;14.542;2023-01-28T06:59:29;3.63;;;1.20;;
54575;SDS011;40472;53.486;14.542;2023-01-28T07:01:55;1.38;;;0.73;;
54575;SDS011;40472;53.486;14.542;2023-01-28T07:04:21;6.47;;;1.33;;
54575;SDS011;40472;53.486;14.542;2023-01-28T07:06:48;1.77;;;0.70;;
54575;SDS011;40472;53.486;14.542;2023-01-28T07:09:14;2.55;;;1.10;;
54575;SDS011;40472;53.486;14.542;2023-01-28T07:11:40;1.75;;;0.95;;
54575;SDS011;40472;53.486;14.542;2023-01-28T07:14:05;1.92;;;1.00;;
54575;SDS011;40472;53.486;14.542;2023-01-28T07:16:31;5.43;;;2.38;;
54575;SDS011;40472;53.486;14.542;2023-01-28T07:18:57;5.28;;;1.40;;
54575;SDS011;40472;53.486;14.542;2023-01-28T07:21:23;3.70;;;1.80;;
54575;SDS011;40472;53.486;14.542;2023-01-28T07:23:48;5.20;;;1.55;;
54575;SDS011;40472;53.486;14.542;2023-01-28T07:26:15;2.88;;;0.80;;
54575;SDS011;40472;53.486;14.542;2023-01-28T07:28:40;3.42;;;0.80;;
54575;SDS011;40472;53.486;14.542;2023-01-28T07:31:06;2.45;;;1.00;;
54575;SDS011;40472;53.486;14.542;2023-01-28T07:33:32;2.38;;;0.93;;
54575;SDS011;40472;53.486;14.542;2023-01-28T07:35:57;1.33;;;0.90;;
54575;SDS011;40472;53.486;14.542;2023-01-28T07:38:23;0.77;;;0.60;;
54575;SDS011;40472;53.486;14.542;2023-01-28T07:40:49;2.28;;;1.00;;
54575;SDS011;40472;53.486;14.542;2023-01-28T07:43:14;1.23;;;0.70;;
54575;SDS011;40472;53.486;14.542;2023-01-28T07:45:40;1.77;;;0.68;;
54575;SDS011;40472;53.486;14.542;2023-01-28T07:48:06;3.72;;;1.15;;
54575;SDS011;40472;53.486;14.542;2023-01-28T07:50:35;1.73;;;1.08;;
54575;SDS011;40472;53.486;14.542;2023-01-28T07:53:02;5.15;;;0.80;;
54575;SDS011;40472;53.486;14.542;2023-01-28T07:55:29;3.78;;;0.60;;
54575;SDS011;40472;53.486;14.542;2023-01-28T07:57:56;2.15;;;1.35;;
54575;SDS011;40472;53.486;14.542;2023-01-28T08:00:23;1.05;;;0.70;;
54575;SDS011;40472;53.486;14.542;2023-01-28T08:02:58;5.28;;;0.90;;
54575;SDS011;40472;53.486;14.542;2023-01-28T08:05:26;1.25;;;0.90;;
54575;SDS011;40472;53.486;14.542;2023-01-28T08:07:57;1.33;;;0.90;;
54575;SDS011;40472;53.486;14.542;2023-01-28T08:10:24;1.42;;;0.68;;
54575;SDS011;40472;53.486;14.542;2023-01-28T08:12:53;1.90;;;0.90;;
54575;SDS011;40472;53.486;14.542;2023-01-28T08:15:21;5.10;;;0.90;;
54575;SDS011;40472;53.486;14.542;2023-01-28T08:17:47;3.38;;;0.70;;
54575;SDS011;40472;53.486;14.542;2023-01-28T08:20:13;2.70;;;1.20;;
54575;SDS011;40472;53.486;14.542;2023-01-28T08:22:38;6.00;;;1.42;;
54575;SDS011;40472;53.486;14.542;2023-01-28T08:25:04;2.10;;;0.95;;
54575;SDS011;40472;53.486;14.542;2023-01-28T08:27:30;4.25;;;1.58;;
54575;SDS011;40472;53.486;14.542;2023-01-28T08:29:56;3.90;;;1.60;;
54575;SDS011;40472;53.486;14.542;2023-01-28T08:32:22;4.00;;;2.00;;
54575;SDS011;40472;53.486;14.542;2023-01-28T08:34:47;5.38;;;1.98;;
54575;SDS011;40472;53.486;14.542;2023-01-28T08:37:13;6.47;;;1.80;;
54575;SDS011;40472;53.486;14.542;2023-01-28T08:39:39;5.30;;;2.08;;
54575;SDS011;40472;53.486;14.542;2023-01-28T08:42:05;6.00;;;2.05;;
54575;SDS011;40472;53.486;14.542;2023-01-28T08:44:31;6.60;;;2.10;;
54575;SDS011;40472;53.486;14.542;2023-01-28T08:46:57;5.20;;;1.80;;
54575;SDS011;40472;53.486;14.542;2023-01-28T08:49:23;2.95;;;1.33;;
54575;SDS011;40472;53.486;14.542;2023-01-28T08:51:49;5.15;;;1.20;;
54575;SDS011;40472;53.486;14.542;2023-01-28T08:54:15;3.33;;;0.90;;
54575;SDS011;40472;53.486;14.542;2023-01-28T08:56:41;2.30;;;0.50;;
54575;SDS011;40472;53.486;14.542;2023-01-28T08:59:09;1.27;;;0.77;;
54575;SDS011;40472;53.486;14.542;2023-01-28T09:01:35;3.50;;;1.20;;
54575;SDS011;40472;53.486;14.542;2023-01-28T09:04:01;1.38;;;1.10;;
54575;SDS011;40472;53.486;14.542;2023-01-28T09:06:28;3.05;;;1.38;;
54575;SDS011;40472;53.486;14.542;2023-01-28T09:08:57;1.98;;;1.05;;
54575;SDS011;40472;53.486;14.542;2023-01-28T09:11:24;3.03;;;0.90;;
54575;SDS011;40472;53.486;14.542;2023-01-28T09:13:51;4.07;;;0.60;;
54575;SDS011;40472;53.486;14.542;2023-01-28T09:16:16;1.85;;;0.50;;
54575;SDS011;40472;53.486;14.542;2023-01-28T09:18:42;1.98;;;0.68;;
54575;SDS011;40472;53.486;14.542;2023-01-28T09:21:08;1.60;;;0.55;;
54575;SDS011;40472;53.486;14.542;2023-01-28T09:23:35;2.28;;;0.80;;
54575;SDS011;40472;53.486;14.542;2023-01-28T09:26:01;2.17;;;0.93;;
54575;SDS011;40472;53.486;14.542;2023-01-28T09:28:29;2.08;;;1.05;;
54575;SDS011;40472;53.486;14.542;2023-01-28T09:31:05;1.33;;;0.95;;
54575;SDS011;40472;53.486;14.542;2023-01-28T09:33:32;0.93;;;0.57;;
54575;SDS011;40472;53.486;14.542;2023-01-28T09:36:00;1.38;;;0.85;;
54575;SDS011;40472;53.486;14.542;2023-01-28T09:38:27;2.25;;;0.77;;
54575;SDS011;40472;53.486;14.542;2023-01-28T09:40:54;2.22;;;1.05;;
54575;SDS011;40472;53.486;14.542;2023-01-28T09:46:21;1.45;;;0.70;;
54575;SDS011;40472;53.486;14.542;2023-01-28T09:48:55;1.45;;;0.50;;
54575;SDS011;40472;53.486;14.542;2023-01-28T09:54:55;1.60;;;0.65;;
54575;SDS011;40472;53.486;14.542;2023-01-28T09:58:03;4.85;;;0.47;;
54575;SDS011;40472;53.486;14.542;2023-01-28T10:00:02;1.65;;;0.65;;
54575;SDS011;40472;53.486;14.542;2023-01-28T10:02:36;1.02;;;0.60;;
54575;SDS011;40472;53.486;14.542;2023-01-28T10:10:49;1.90;;;0.73;;
54575;SDS011;40472;53.486;14.542;2023-01-28T10:13:43;3.80;;;1.00;;
54575;SDS011;40472;53.486;14.542;2023-01-28T10:19:21;2.43;;;1.20;;
54575;SDS011;40472;53.486;14.542;2023-01-28T10:24:42;2.72;;;1.15;;
54575;SDS011;40472;53.486;14.542;2023-01-28T10:27:23;3.63;;;1.23;;
54575;SDS011;40472;53.486;14.542;2023-01-28T10:29:52;3.25;;;1.10;;
54575;SDS011;40472;53.486;14.542;2023-01-28T10:32:31;2.20;;;1.30;;
54575;SDS011;40472;53.486;14.542;2023-01-28T10:34:58;8.05;;;1.48;;
54575;SDS011;40472;53.486;14.542;2023-01-28T10:37:26;2.00;;;1.25;;
54575;SDS011;40472;53.486;14.542;2023-01-28T10:39:57;3.00;;;1.02;;
54575;SDS011;40472;53.486;14.542;2023-01-28T10:45:06;4.40;;;1.23;;
54575;SDS011;40472;53.486;14.542;2023-01-28T10:47:40;2.47;;;0.98;;
54575;SDS011;40472;53.486;14.542;2023-01-28T10:50:21;2.33;;;1.10;;
54575;SDS011;40472;53.486;14.542;2023-01-28T10:52:57;2.50;;;1.48;;
54575;SDS011;40472;53.486;14.542;2023-01-28T10:55:29;3.88;;;1.35;;
54575;SDS011;40472;53.486;14.542;2023-01-28T10:58:12;3.28;;;1.00;;
54575;SDS011;40472;53.486;14.542;2023-01-28T11:00:50;6.65;;;1.85;;
54575;SDS011;40472;53.486;14.542;2023-01-28T11:03:18;4.20;;;1.58;;
54575;SDS011;40472;53.486;14.542;2023-01-28T11:05:51;2.75;;;1.30;;
54575;SDS011;40472;53.486;14.542;2023-01-28T11:08:18;5.32;;;1.13;;
54575;SDS011;40472;53.486;14.542;2023-01-28T11:10:46;3.20;;;1.30;;
54575;SDS011;40472;53.486;14.542;2023-01-28T11:13:19;2.40;;;0.80;;
54575;SDS011;40472;53.486;14.542;2023-01-28T11:15:48;1.88;;;1.02;;
54575;SDS011;40472;53.486;14.542;2023-01-28T11:18:17;5.20;;;1.38;;
54575;SDS011;40472;53.486;14.542;2023-01-28T11:20:53;4.53;;;1.77;;
54575;SDS011;40472;53.486;14.542;2023-01-28T11:23:28;3.08;;;1.05;;
54575;SDS011;40472;53.486;14.542;2023-01-28T11:25:59;1.80;;;0.65;;
54575;SDS011;40472;53.486;14.542;2023-01-28T11:28:30;1.75;;;0.70;;
54575;SDS011;40472;53.486;14.542;2023-01-28T11:30:57;1.60;;;0.52;;
54575;SDS011;40472;53.486;14.542;2023-01-28T11:35:55;2.50;;;0.65;;
54575;SDS011;40472;53.486;14.542;2023-01-28T11:38:24;1.35;;;0.50;;
54575;SDS011;40472;53.486;14.542;2023-01-28T11:40:50;0.30;;;0.30;;
54575;SDS011;40472;53.486;14.542;2023-01-28T11:43:19;1.17;;;0.35;;
54575;SDS011;40472;53.486;14.542;2023-01-28T11:57:11;12.27;;;4.22;;
54575;SDS011;40472;53.486;14.542;2023-01-28T11:59:53;0.85;;;0.77;;
54575;SDS011;40472;53.486;14.542;2023-01-28T12:08:25;0.63;;;0.55;;
54575;SDS011;40472;53.486;14.542;2023-01-28T12:28:39;0.90;;;0.43;;
54575;SDS011;40472;53.486;14.542;2023-01-28T12:36:50;0.45;;;0.30;;
54575;SDS011;40472;53.486;14.542;2023-01-28T12:42:41;1.55;;;0.88;;
54575;SDS011;40472;53.486;14.542;2023-01-28T12:45:15;1.25;;;0.73;;
54575;SDS011;40472;53.486;14.542;2023-01-28T12:48:01;2.28;;;0.85;;
54575;SDS011;40472;53.486;14.542;2023-01-28T12:50:47;1.33;;;0.90;;
54575;SDS011;40472;53.486;14.542;2023-01-28T12:56:32;1.02;;;0.60;;
54575;SDS011;40472;53.486;14.542;2023-01-28T12:59:07;1.58;;;1.00;;
54575;SDS011;40472;53.486;14.542;2023-01-28T13:01:54;2.42;;;1.42;;
54575;SDS011;40472;53.486;14.542;2023-01-28T13:07:17;3.72;;;0.80;;
54575;SDS011;40472;53.486;14.542;2023-01-28T13:09:53;0.77;;;0.47;;
54575;SDS011;40472;53.486;14.542;2023-01-28T13:12:39;2.30;;;1.00;;
54575;SDS011;40472;53.486;14.542;2023-01-28T13:15:10;6.43;;;0.90;;
54575;SDS011;40472;53.486;14.542;2023-01-28T13:17:38;1.77;;;0.70;;
54575;SDS011;40472;53.486;14.542;2023-01-28T13:20:48;2.13;;;1.23;;
54575;SDS011;40472;53.486;14.542;2023-01-28T13:23:02;4.82;;;1.20;;
54575;SDS011;40472;53.486;14.542;2023-01-28T13:25:32;1.42;;;0.80;;
54575;SDS011;40472;53.486;14.542;2023-01-28T13:28:00;5.55;;;0.93;;
54575;SDS011;40472;53.486;14.542;2023-01-28T13:30:31;5.40;;;1.40;;
54575;SDS011;40472;53.486;14.542;2023-01-28T13:33:00;1.98;;;1.00;;
54575;SDS011;40472;53.486;14.542;2023-01-28T13:37:58;0.77;;;0.77;;
54575;SDS011;40472;53.486;14.542;2023-01-28T13:40:32;0.82;;;0.60;;
54575;SDS011;40472;53.486;14.542;2023-01-28T13:43:00;2.08;;;0.60;;
54575;SDS011;40472;53.486;14.542;2023-01-28T13:45:29;1.30;;;0.70;;
54575;SDS011;40472;53.486;14.542;2023-01-28T13:50:57;5.75;;;1.55;;
54575;SDS011;40472;53.486;14.542;2023-01-28T13:53:44;6.18;;;1.90;;
54575;SDS011;40472;53.486;14.542;2023-01-28T13:56:22;3.40;;;2.35;;
54575;SDS011;40472;53.486;14.542;2023-01-28T14:12:29;6.35;;;1.50;;
54575;SDS011;40472;53.486;14.542;2023-01-28T14:18:21;5.43;;;1.27;;
54575;SDS011;40472;53.486;14.542;2023-01-28T14:20:56;2.10;;;0.98;;
54575;SDS011;40472;53.486;14.542;2023-01-28T14:23:26;4.43;;;1.25;;
54575;SDS011;40472;53.486;14.542;2023-01-28T14:26:04;3.15;;;1.63;;
54575;SDS011;40472;53.486;14.542;2023-01-28T14:28:46;6.78;;;1.40;;
54575;SDS011;40472;53.486;14.542;2023-01-28T14:31:34;2.83;;;0.77;;
54575;SDS011;40472;53.486;14.542;2023-01-28T14:34:08;5.05;;;1.70;;
54575;SDS011;40472;53.486;14.542;2023-01-28T14:36:47;0.98;;;0.70;;
54575;SDS011;40472;53.486;14.542;2023-01-28T14:39:16;1.27;;;0.60;;
54575;SDS011;40472;53.486;14.542;2023-01-28T14:41:47;1.70;;;0.90;;
54575;SDS011;40472;53.486;14.542;2023-01-28T14:46:59;2.13;;;1.20;;
54575;SDS011;40472;53.486;14.542;2023-01-28T14:49:52;3.10;;;1.90;;
54575;SDS011;40472;53.486;14.542;2023-01-28T14:52:38;4.85;;;2.10;;
54575;SDS011;40472;53.486;14.542;2023-01-28T14:57:57;6.05;;;2.95;;
54575;SDS011;40472;53.486;14.542;2023-01-28T15:00:54;6.63;;;2.97;;
54575;SDS011;40472;53.486;14.542;2023-01-28T15:03:25;10.30;;;4.25;;
54575;SDS011;40472;53.486;14.542;2023-01-28T15:09:06;4.80;;;1.80;;
54575;SDS011;40472;53.486;14.542;2023-01-28T15:11:34;2.25;;;1.30;;
54575;SDS011;40472;53.486;14.542;2023-01-28T15:14:03;1.50;;;0.77;;
54575;SDS011;40472;53.486;14.542;2023-01-28T15:16:37;2.90;;;1.02;;
54575;SDS011;40472;53.486;14.542;2023-01-28T15:19:04;1.23;;;0.90;;
54575;SDS011;40472;53.486;14.542;2023-01-28T15:21:33;2.60;;;1.23;;
54575;SDS011;40472;53.486;14.542;2023-01-28T15:24:00;1.55;;;0.70;;
54575;SDS011;40472;53.486;14.542;2023-01-28T15:26:28;2.33;;;0.60;;
54575;SDS011;40472;53.486;14.542;2023-01-28T15:28:56;2.63;;;0.88;;
54575;SDS011;40472;53.486;14.542;2023-01-28T15:34:11;2.75;;;1.52;;
54575;SDS011;40472;53.486;14.542;2023-01-28T15:36:38;1.48;;;0.93;;
54575;SDS011;40472;53.486;14.542;2023-01-28T15:39:11;1.77;;;1.05;;
54575;SDS011;40472;53.486;14.542;2023-01-28T15:41:39;2.22;;;1.20;;
54575;SDS011;40472;53.486;14.542;2023-01-28T15:44:14;4.40;;;2.53;;
54575;SDS011;40472;53.486;14.542;2023-01-28T15:46:53;91.63;;;27.95;;
54575;SDS011;40472;53.486;14.542;2023-01-28T15:49:20;71.95;;;26.58;;
54575;SDS011;40472;53.486;14.542;2023-01-28T15:51:50;88.07;;;28.05;;
54575;SDS011;40472;53.486;14.542;2023-01-28T15:54:18;20.38;;;8.10;;
54575;SDS011;40472;53.486;14.542;2023-01-28T15:56:44;6.90;;;3.63;;
54575;SDS011;40472;53.486;14.542;2023-01-28T15:59:26;6.43;;;3.53;;
54575;SDS011;40472;53.486;14.542;2023-01-28T16:02:17;13.50;;;5.40;;
54575;SDS011;40472;53.486;14.542;2023-01-28T16:04:57;7.82;;;2.78;;
54575;SDS011;40472;53.486;14.542;2023-01-28T16:07:28;68.40;;;19.90;;
54575;SDS011;40472;53.486;14.542;2023-01-28T16:09:57;48.60;;;13.43;;
54575;SDS011;40472;53.486;14.542;2023-01-28T16:12:25;57.03;;;17.17;;
54575;SDS011;40472;53.486;14.542;2023-01-28T16:14:58;63.15;;;21.20;;
54575;SDS011;40472;53.486;14.542;2023-01-28T16:17:27;22.92;;;9.07;;
54575;SDS011;40472;53.486;14.542;2023-01-28T16:20:00;20.02;;;8.15;;
54575;SDS011;40472;53.486;14.542;2023-01-28T16:24:57;13.93;;;7.03;;
54575;SDS011;40472;53.486;14.542;2023-01-28T16:27:24;14.98;;;6.13;;
54575;SDS011;40472;53.486;14.542;2023-01-28T16:29:52;13.18;;;5.97;;
54575;SDS011;40472;53.486;14.542;2023-01-28T16:34:55;15.43;;;6.65;;
54575;SDS011;40472;53.486;14.542;2023-01-28T16:37:21;15.65;;;6.88;;
54575;SDS011;40472;53.486;14.542;2023-01-28T16:39:47;9.23;;;4.15;;
54575;SDS011;40472;53.486;14.542;2023-01-28T16:42:13;9.32;;;4.25;;
54575;SDS011;40472;53.486;14.542;2023-01-28T16:44:39;5.30;;;3.15;;
54575;SDS011;40472;53.486;14.542;2023-01-28T16:47:04;14.50;;;3.88;;
54575;SDS011;40472;53.486;14.542;2023-01-28T16:49:31;5.72;;;3.10;;
54575;SDS011;40472;53.486;14.542;2023-01-28T16:51:56;7.22;;;3.70;;
54575;SDS011;40472;53.486;14.542;2023-01-28T16:54:22;2.53;;;2.00;;
54575;SDS011;40472;53.486;14.542;2023-01-28T16:56:48;4.57;;;2.60;;
54575;SDS011;40472;53.486;14.542;2023-01-28T16:59:14;5.70;;;3.10;;
54575;SDS011;40472;53.486;14.542;2023-01-28T17:01:41;5.63;;;3.00;;
54575;SDS011;40472;53.486;14.542;2023-01-28T17:04:07;2.47;;;1.63;;
54575;SDS011;40472;53.486;14.542;2023-01-28T17:06:34;6.68;;;1.10;;
54575;SDS011;40472;53.486;14.542;2023-01-28T17:09:06;5.70;;;3.17;;
54575;SDS011;40472;53.486;14.542;2023-01-28T17:11:32;4.90;;;3.50;;
54575;SDS011;40472;53.486;14.542;2023-01-28T17:14:00;12.93;;;4.32;;